sensor_id;sensor_type;location;lat;lon;timestamp;pressure;altitude;pressure_sealevel;temperature;humidity
16481;BME280;44634;54.110;12.138;2023-04-06T00:02:07;101929.28;;;5.49;100.00
16481;BME280;44634;54.110;12.138;2023-04-06T00:04:35;101922.00;;;5.01;100.00
16481;BME280;44634;54.110;12.138;2023-04-06T00:07:03;101918.59;;;5.18;100.00
16481;BME280;44634;54.110;12.138;2023-04-06T00:09:31;101911.06;;;5.29;100.00
16481;BME280;44634;54.110;12.138;2023-04-06T00:11:59;101907.09;;;5.20;100.00
16481;BME280;44634;54.110;12.138;2023-04-06T00:14:26;101907.91;;;5.22;100.00
16481;BME280;44634;54.110;12.138;2023-04-06T00:16:56;101905.47;;;5.71;100.00
16481;BME280;44634;54.110;12.138;2023-04-06T00:19:24;101919.97;;;5.07;100.00
16481;BME280;44634;54.110;12.138;2023-04-06T00:21:51;101915.78;;;5.40;100.00
16481;BME280;44634;54.110;12.138;2023-04-06T00:24:19;101913.78;;;5.45;100.00
16481;BME280;44634;54.110;12.138;2023-04-06T00:26:47;101919.78;;;5.29;100.00
16481;BME280;44634;54.110;12.138;2023-04-06T00:29:15;101914.03;;;4.85;100.00
16481;BME280;44634;54.110;12.138;2023-04-06T00:31:43;101886.63;;;4.92;100.00
16481;BME280;44634;54.110;12.138;2023-04-06T00:34:12;101866.44;;;4.94;100.00
16481;BME280;44634;54.110;12.138;2023-04-06T00:36:41;101888.91;;;5.34;100.00
16481;BME280;44634;54.110;12.138;2023-04-06T00:39:09;101897.03;;;5.30;100.00
16481;BME280;44634;54.110;12.138;2023-04-06T00:41:39;101901.22;;;5.68;100.00
16481;BME280;44634;54.110;12.138;2023-04-06T00:44:11;101924.06;;;5.66;100.00
16481;BME280;44634;54.110;12.138;2023-04-06T00:46:39;101942.84;;;5.23;100.00
16481;BME280;44634;54.110;12.138;2023-04-06T00:49:07;101935.09;;;5.20;100.00
16481;BME280;44634;54.110;12.138;2023-04-06T00:51:37;101926.97;;;5.43;100.00
16481;BME280;44634;54.110;12.138;2023-04-06T00:54:05;101930.88;;;5.34;100.00
16481;BME280;44634;54.110;12.138;2023-04-06T00:56:32;101939.81;;;5.30;100.00
16481;BME280;44634;54.110;12.138;2023-04-06T00:59:00;101941.25;;;5.19;100.00
16481;BME280;44634;54.110;12.138;2023-04-06T01:01:29;101923.63;;;5.22;100.00
16481;BME280;44634;54.110;12.138;2023-04-06T01:03:59;101922.22;;;5.15;100.00
16481;BME280;44634;54.110;12.138;2023-04-06T01:06:26;101927.03;;;5.24;100.00
16481;BME280;44634;54.110;12.138;2023-04-06T01:08:56;101921.97;;;5.20;100.00
16481;BME280;44634;54.110;12.138;2023-04-06T01:11:24;101936.25;;;5.14;100.00
16481;BME280;44634;54.110;12.138;2023-04-06T01:13:52;101933.19;;;4.48;100.00
16481;BME280;44634;54.110;12.138;2023-04-06T01:16:20;101916.13;;;4.77;100.00
16481;BME280;44634;54.110;12.138;2023-04-06T01:18:48;101937.75;;;4.82;100.00
16481;BME280;44634;54.110;12.138;2023-04-06T01:21:16;101938.97;;;4.94;100.00
16481;BME280;44634;54.110;12.138;2023-04-06T01:23:45;101936.00;;;4.64;100.00
16481;BME280;44634;54.110;12.138;2023-04-06T01:26:13;101925.78;;;4.58;100.00
16481;BME280;44634;54.110;12.138;2023-04-06T01:28:41;101917.22;;;4.73;100.00
16481;BME280;44634;54.110;12.138;2023-04-06T01:31:10;101910.97;;;4.57;100.00
16481;BME280;44634;54.110;12.138;2023-04-06T01:33:38;101912.59;;;4.97;100.00
16481;BME280;44634;54.110;12.138;2023-04-06T01:36:07;101909.34;;;4.54;100.00
16481;BME280;44634;54.110;12.138;2023-04-06T01:38:35;101892.56;;;4.96;100.00
16481;BME280;44634;54.110;12.138;2023-04-06T01:41:04;101888.44;;;3.74;100.00
16481;BME280;44634;54.110;12.138;2023-04-06T01:43:32;101865.88;;;4.12;100.00
16481;BME280;44634;54.110;12.138;2023-04-06T01:46:00;101850.56;;;4.03;100.00
16481;BME280;44634;54.110;12.138;2023-04-06T01:48:28;101848.63;;;4.65;100.00
16481;BME280;44634;54.110;12.138;2023-04-06T01:50:56;101874.72;;;4.47;100.00
16481;BME280;44634;54.110;12.138;2023-04-06T01:53:24;101887.63;;;4.71;100.00
16481;BME280;44634;54.110;12.138;2023-04-06T01:55:52;101895.56;;;4.51;100.00
16481;BME280;44634;54.110;12.138;2023-04-06T01:58:21;101884.88;;;3.97;100.00
16481;BME280;44634;54.110;12.138;2023-04-06T02:00:49;101850.03;;;3.76;100.00
16481;BME280;44634;54.110;12.138;2023-04-06T02:03:17;101827.63;;;3.89;100.00
16481;BME280;44634;54.110;12.138;2023-04-06T02:05:45;101830.38;;;3.86;100.00
16481;BME280;44634;54.110;12.138;2023-04-06T02:08:12;101809.63;;;3.63;100.00
16481;BME280;44634;54.110;12.138;2023-04-06T02:10:41;101800.66;;;3.69;100.00
16481;BME280;44634;54.110;12.138;2023-04-06T02:13:09;101805.69;;;4.50;100.00
16481;BME280;44634;54.110;12.138;2023-04-06T02:15:38;101832.69;;;4.13;100.00
16481;BME280;44634;54.110;12.138;2023-04-06T02:18:06;101837.22;;;4.09;100.00
16481;BME280;44634;54.110;12.138;2023-04-06T02:20:34;101859.44;;;4.20;100.00
16481;BME280;44634;54.110;12.138;2023-04-06T02:23:02;101862.88;;;4.01;100.00
16481;BME280;44634;54.110;12.138;2023-04-06T02:25:30;101861.44;;;4.71;100.00
16481;BME280;44634;54.110;12.138;2023-04-06T02:27:57;101881.47;;;4.72;100.00
16481;BME280;44634;54.110;12.138;2023-04-06T02:30:25;101880.00;;;4.66;100.00
16481;BME280;44634;54.110;12.138;2023-04-06T02:32:55;101885.41;;;4.62;100.00
16481;BME280;44634;54.110;12.138;2023-04-06T02:35:24;101888.13;;;4.41;100.00
16481;BME280;44634;54.110;12.138;2023-04-06T02:37:52;101878.41;;;4.43;100.00
16481;BME280;44634;54.110;12.138;2023-04-06T02:40:20;101874.88;;;4.26;100.00
16481;BME280;44634;54.110;12.138;2023-04-06T02:42:48;101879.56;;;3.99;100.00
16481;BME280;44634;54.110;12.138;2023-04-06T02:45:16;101850.59;;;3.83;100.00
16481;BME280;44634;54.110;12.138;2023-04-06T02:47:44;101833.88;;;3.67;100.00
16481;BME280;44634;54.110;12.138;2023-04-06T02:50:13;101816.66;;;3.61;100.00
16481;BME280;44634;54.110;12.138;2023-04-06T02:52:41;101806.09;;;3.23;100.00
16481;BME280;44634;54.110;12.138;2023-04-06T02:55:09;101801.72;;;3.65;100.00
16481;BME280;44634;54.110;12.138;2023-04-06T02:57:37;101802.63;;;3.64;100.00
16481;BME280;44634;54.110;12.138;2023-04-06T03:00:06;101814.88;;;3.63;100.00
16481;BME280;44634;54.110;12.138;2023-04-06T03:02:34;101826.69;;;4.30;100.00
16481;BME280;44634;54.110;12.138;2023-04-06T03:05:02;101835.34;;;3.93;100.00
16481;BME280;44634;54.110;12.138;2023-04-06T03:07:32;101837.97;;;3.72;100.00
16481;BME280;44634;54.110;12.138;2023-04-06T03:10:00;101837.97;;;3.72;100.00
16481;BME280;44634;54.110;12.138;2023-04-06T03:12:28;101825.75;;;3.12;100.00
16481;BME280;44634;54.110;12.138;2023-04-06T03:14:55;101800.47;;;3.33;100.00
16481;BME280;44634;54.110;12.138;2023-04-06T03:17:23;101794.53;;;3.29;100.00
16481;BME280;44634;54.110;12.138;2023-04-06T03:19:51;101782.00;;;3.37;100.00
16481;BME280;44634;54.110;12.138;2023-04-06T03:22:19;101779.22;;;2.99;100.00
16481;BME280;44634;54.110;12.138;2023-04-06T03:24:49;101765.78;;;3.09;100.00
16481;BME280;44634;54.110;12.138;2023-04-06T03:27:16;101761.22;;;3.34;100.00
16481;BME280;44634;54.110;12.138;2023-04-06T03:29:44;101766.09;;;3.42;100.00
16481;BME280;44634;54.110;12.138;2023-04-06T03:32:12;101783.41;;;3.44;100.00
16481;BME280;44634;54.110;12.138;2023-04-06T03:34:40;101772.97;;;3.24;100.00
16481;BME280;44634;54.110;12.138;2023-04-06T03:37:08;101772.69;;;3.30;100.00
16481;BME280;44634;54.110;12.138;2023-04-06T03:39:36;101760.09;;;3.40;100.00
16481;BME280;44634;54.110;12.138;2023-04-06T03:42:05;101761.81;;;3.20;100.00
16481;BME280;44634;54.110;12.138;2023-04-06T03:44:33;101761.53;;;3.06;100.00
16481;BME280;44634;54.110;12.138;2023-04-06T03:47:01;101758.03;;;3.46;100.00
16481;BME280;44634;54.110;12.138;2023-04-06T03:49:29;101760.41;;;3.32;100.00
16481;BME280;44634;54.110;12.138;2023-04-06T03:51:57;101783.75;;;3.37;100.00
16481;BME280;44634;54.110;12.138;2023-04-06T03:54:25;101773.44;;;3.34;100.00
16481;BME280;44634;54.110;12.138;2023-04-06T03:56:53;101770.47;;;3.41;100.00
16481;BME280;44634;54.110;12.138;2023-04-06T03:59:23;101796.81;;;3.57;100.00
16481;BME280;44634;54.110;12.138;2023-04-06T04:01:51;101804.19;;;3.27;100.00
16481;BME280;44634;54.110;12.138;2023-04-06T04:04:18;101787.94;;;3.41;100.00
16481;BME280;44634;54.110;12.138;2023-04-06T04:06:46;101803.47;;;3.64;100.00
16481;BME280;44634;54.110;12.138;2023-04-06T04:09:14;101813.97;;;3.83;100.00
16481;BME280;44634;54.110;12.138;2023-04-06T04:11:42;101816.31;;;3.50;100.00
16481;BME280;44634;54.110;12.138;2023-04-06T04:14:10;101823.13;;;3.32;100.00
16481;BME280;44634;54.110;12.138;2023-04-06T04:16:39;101823.50;;;3.03;100.00
16481;BME280;44634;54.110;12.138;2023-04-06T04:19:08;101791.41;;;2.99;100.00
16481;BME280;44634;54.110;12.138;2023-04-06T04:21:42;101789.09;;;3.13;100.00
16481;BME280;44634;54.110;12.138;2023-04-06T04:24:10;101780.00;;;3.42;100.00
16481;BME280;44634;54.110;12.138;2023-04-06T04:26:43;101805.44;;;3.39;100.00
16481;BME280;44634;54.110;12.138;2023-04-06T04:29:11;101814.28;;;3.36;100.00
16481;BME280;44634;54.110;12.138;2023-04-06T04:31:40;101821.25;;;3.36;100.00
16481;BME280;44634;54.110;12.138;2023-04-06T04:34:08;101808.78;;;3.22;100.00
16481;BME280;44634;54.110;12.138;2023-04-06T04:36:36;101805.38;;;3.40;100.00
16481;BME280;44634;54.110;12.138;2023-04-06T04:39:04;101810.09;;;3.52;100.00
16481;BME280;44634;54.110;12.138;2023-04-06T04:41:32;101824.91;;;3.32;100.00
16481;BME280;44634;54.110;12.138;2023-04-06T04:44:00;101814.31;;;3.55;100.00
16481;BME280;44634;54.110;12.138;2023-04-06T04:46:28;101811.00;;;3.51;100.00
16481;BME280;44634;54.110;12.138;2023-04-06T04:48:57;101820.84;;;3.45;100.00
16481;BME280;44634;54.110;12.138;2023-04-06T04:51:25;101828.63;;;3.26;100.00
16481;BME280;44634;54.110;12.138;2023-04-06T04:53:53;101820.72;;;3.27;100.00
16481;BME280;44634;54.110;12.138;2023-04-06T04:56:21;101823.78;;;3.17;100.00
16481;BME280;44634;54.110;12.138;2023-04-06T04:58:49;101811.91;;;3.30;100.00
16481;BME280;44634;54.110;12.138;2023-04-06T05:01:18;101810.53;;;3.42;100.00
16481;BME280;44634;54.110;12.138;2023-04-06T05:03:47;101818.72;;;3.34;100.00
16481;BME280;44634;54.110;12.138;2023-04-06T05:06:16;101825.81;;;3.31;100.00
16481;BME280;44634;54.110;12.138;2023-04-06T05:08:45;101826.72;;;2.87;100.00
16481;BME280;44634;54.110;12.138;2023-04-06T05:11:13;101818.03;;;2.87;100.00
16481;BME280;44634;54.110;12.138;2023-04-06T05:13:41;101798.06;;;2.64;100.00
16481;BME280;44634;54.110;12.138;2023-04-06T05:16:09;101789.22;;;3.10;100.00
16481;BME280;44634;54.110;12.138;2023-04-06T05:18:37;101805.31;;;3.21;100.00
16481;BME280;44634;54.110;12.138;2023-04-06T05:21:05;101811.41;;;3.00;100.00
16481;BME280;44634;54.110;12.138;2023-04-06T05:23:34;101810.00;;;3.54;100.00
16481;BME280;44634;54.110;12.138;2023-04-06T05:26:02;101817.41;;;3.24;100.00
16481;BME280;44634;54.110;12.138;2023-04-06T05:28:30;101815.41;;;3.09;100.00
16481;BME280;44634;54.110;12.138;2023-04-06T05:30:58;101806.28;;;3.19;100.00
16481;BME280;44634;54.110;12.138;2023-04-06T05:33:26;101817.75;;;2.94;100.00
16481;BME280;44634;54.110;12.138;2023-04-06T05:35:54;101813.88;;;3.45;100.00
16481;BME280;44634;54.110;12.138;2023-04-06T05:38:22;101828.69;;;3.24;100.00
16481;BME280;44634;54.110;12.138;2023-04-06T05:40:51;101816.28;;;3.09;100.00
16481;BME280;44634;54.110;12.138;2023-04-06T05:43:19;101807.19;;;3.18;100.00
16481;BME280;44634;54.110;12.138;2023-04-06T05:45:48;101813.94;;;3.44;100.00
16481;BME280;44634;54.110;12.138;2023-04-06T05:48:16;101826.09;;;3.45;100.00
16481;BME280;44634;54.110;12.138;2023-04-06T05:50:48;101820.53;;;3.73;100.00
16481;BME280;44634;54.110;12.138;2023-04-06T05:53:16;101826.09;;;4.04;100.00
16481;BME280;44634;54.110;12.138;2023-04-06T05:55:44;101856.09;;;3.56;100.00
16481;BME280;44634;54.110;12.138;2023-04-06T05:58:13;101833.22;;;4.01;100.00
16481;BME280;44634;54.110;12.138;2023-04-06T06:00:41;101847.75;;;4.08;100.00
16481;BME280;44634;54.110;12.138;2023-04-06T06:03:12;101864.13;;;4.51;100.00
16481;BME280;44634;54.110;12.138;2023-04-06T06:05:41;101859.09;;;3.88;100.00
16481;BME280;44634;54.110;12.138;2023-04-06T06:08:09;101852.25;;;4.04;100.00
16481;BME280;44634;54.110;12.138;2023-04-06T06:10:38;101848.31;;;4.33;100.00
16481;BME280;44634;54.110;12.138;2023-04-06T06:13:06;101841.41;;;4.51;100.00
16481;BME280;44634;54.110;12.138;2023-04-06T06:15:36;101846.44;;;4.92;100.00
16481;BME280;44634;54.110;12.138;2023-04-06T06:18:04;101852.72;;;4.70;100.00
16481;BME280;44634;54.110;12.138;2023-04-06T06:20:32;101850.28;;;4.85;100.00
16481;BME280;44634;54.110;12.138;2023-04-06T06:23:00;101854.38;;;4.90;100.00
16481;BME280;44634;54.110;12.138;2023-04-06T06:25:28;101861.28;;;5.10;100.00
16481;BME280;44634;54.110;12.138;2023-04-06T06:27:58;101861.75;;;5.18;100.00
16481;BME280;44634;54.110;12.138;2023-04-06T06:30:26;101875.25;;;4.56;100.00
16481;BME280;44634;54.110;12.138;2023-04-06T06:32:55;101862.41;;;4.87;100.00
16481;BME280;44634;54.110;12.138;2023-04-06T06:35:23;101871.69;;;4.94;100.00
16481;BME280;44634;54.110;12.138;2023-04-06T06:37:51;101858.72;;;4.72;100.00
16481;BME280;44634;54.110;12.138;2023-04-06T06:40:19;101858.69;;;5.27;100.00
16481;BME280;44634;54.110;12.138;2023-04-06T06:42:50;101866.88;;;5.73;100.00
16481;BME280;44634;54.110;12.138;2023-04-06T06:45:18;101891.47;;;6.22;100.00
16481;BME280;44634;54.110;12.138;2023-04-06T06:47:46;101898.88;;;6.14;100.00
16481;BME280;44634;54.110;12.138;2023-04-06T06:50:16;101901.22;;;5.68;100.00
16481;BME280;44634;54.110;12.138;2023-04-06T06:52:44;101884.47;;;6.39;100.00
16481;BME280;44634;54.110;12.138;2023-04-06T06:55:12;101895.31;;;6.15;100.00
16481;BME280;44634;54.110;12.138;2023-04-06T06:57:40;101897.47;;;6.24;100.00
16481;BME280;44634;54.110;12.138;2023-04-06T07:00:10;101908.78;;;7.21;100.00
16481;BME280;44634;54.110;12.138;2023-04-06T07:02:40;101930.59;;;6.27;100.00
16481;BME280;44634;54.110;12.138;2023-04-06T07:05:08;101919.78;;;6.49;100.00
16481;BME280;44634;54.110;12.138;2023-04-06T07:07:54;101911.59;;;7.18;100.00
16481;BME280;44634;54.110;12.138;2023-04-06T07:10:22;101929.91;;;7.65;100.00
16481;BME280;44634;54.110;12.138;2023-04-06T07:12:50;101942.06;;;7.06;100.00
16481;BME280;44634;54.110;12.138;2023-04-06T07:15:18;101941.47;;;6.85;100.00
16481;BME280;44634;54.110;12.138;2023-04-06T07:17:46;101956.84;;;7.09;100.00
16481;BME280;44634;54.110;12.138;2023-04-06T07:20:15;101940.56;;;7.78;100.00
16481;BME280;44634;54.110;12.138;2023-04-06T07:22:43;101954.16;;;7.56;100.00
16481;BME280;44634;54.110;12.138;2023-04-06T07:25:13;101957.88;;;7.68;100.00
16481;BME280;44634;54.110;12.138;2023-04-06T07:27:41;101956.78;;;7.56;100.00
16481;BME280;44634;54.110;12.138;2023-04-06T07:30:10;101955.22;;;7.68;100.00
16481;BME280;44634;54.110;12.138;2023-04-06T07:32:38;101943.28;;;7.76;100.00
16481;BME280;44634;54.110;12.138;2023-04-06T07:35:07;101956.66;;;7.28;100.00
16481;BME280;44634;54.110;12.138;2023-04-06T07:37:35;101971.31;;;7.16;100.00
16481;BME280;44634;54.110;12.138;2023-04-06T07:40:03;101961.09;;;7.87;100.00
16481;BME280;44634;54.110;12.138;2023-04-06T07:42:32;101954.50;;;7.34;100.00
16481;BME280;44634;54.110;12.138;2023-04-06T07:45:00;101936.19;;;7.33;100.00
16481;BME280;44634;54.110;12.138;2023-04-06T07:47:28;101920.28;;;7.50;100.00
16481;BME280;44634;54.110;12.138;2023-04-06T07:49:56;101934.25;;;7.05;100.00
16481;BME280;44634;54.110;12.138;2023-04-06T07:52:24;101923.22;;;8.04;100.00
16481;BME280;44634;54.110;12.138;2023-04-06T07:54:52;101912.94;;;8.58;100.00
16481;BME280;44634;54.110;12.138;2023-04-06T07:57:19;101952.94;;;7.92;100.00
16481;BME280;44634;54.110;12.138;2023-04-06T07:59:49;101965.91;;;7.95;100.00
16481;BME280;44634;54.110;12.138;2023-04-06T08:02:17;101970.94;;;7.99;100.00
16481;BME280;44634;54.110;12.138;2023-04-06T08:04:45;101988.88;;;8.37;100.00
16481;BME280;44634;54.110;12.138;2023-04-06T08:07:13;101999.44;;;8.51;100.00
16481;BME280;44634;54.110;12.138;2023-04-06T08:09:41;101991.22;;;8.27;100.00
16481;BME280;44634;54.110;12.138;2023-04-06T08:12:08;101985.25;;;8.24;100.00
16481;BME280;44634;54.110;12.138;2023-04-06T08:14:36;101983.69;;;9.07;100.00
16481;BME280;44634;54.110;12.138;2023-04-06T08:17:06;102007.63;;;9.45;100.00
16481;BME280;44634;54.110;12.138;2023-04-06T08:19:34;102014.50;;;9.74;100.00
16481;BME280;44634;54.110;12.138;2023-04-06T08:22:02;102010.13;;;9.61;100.00
16481;BME280;44634;54.110;12.138;2023-04-06T08:24:30;102013.28;;;9.93;100.00
16481;BME280;44634;54.110;12.138;2023-04-06T08:26:58;102019.28;;;10.22;100.00
16481;BME280;44634;54.110;12.138;2023-04-06T08:29:27;102022.63;;;9.71;100.00
16481;BME280;44634;54.110;12.138;2023-04-06T08:31:54;102034.13;;;9.43;100.00
16481;BME280;44634;54.110;12.138;2023-04-06T08:34:24;102024.97;;;9.49;100.00
16481;BME280;44634;54.110;12.138;2023-04-06T08:36:52;102022.47;;;10.39;100.00
16481;BME280;44634;54.110;12.138;2023-04-06T08:39:19;102038.38;;;10.12;100.00
16481;BME280;44634;54.110;12.138;2023-04-06T08:41:52;102035.72;;;10.78;100.00
16481;BME280;44634;54.110;12.138;2023-04-06T08:44:23;102036.88;;;10.86;100.00
16481;BME280;44634;54.110;12.138;2023-04-06T08:46:52;102040.16;;;10.64;100.00
16481;BME280;44634;54.110;12.138;2023-04-06T08:49:20;102039.84;;;11.44;100.00
16481;BME280;44634;54.110;12.138;2023-04-06T08:51:50;102038.31;;;11.52;100.00
16481;BME280;44634;54.110;12.138;2023-04-06T08:54:18;102032.09;;;12.12;100.00
16481;BME280;44634;54.110;12.138;2023-04-06T08:56:47;102038.97;;;11.80;100.00
16481;BME280;44634;54.110;12.138;2023-04-06T08:59:16;102049.44;;;10.95;100.00
16481;BME280;44634;54.110;12.138;2023-04-06T09:01:44;102048.94;;;10.78;100.00
16481;BME280;44634;54.110;12.138;2023-04-06T09:04:13;102050.38;;;11.20;100.00
16481;BME280;44634;54.110;12.138;2023-04-06T09:06:42;102042.44;;;11.07;100.00
16481;BME280;44634;54.110;12.138;2023-04-06T09:09:12;102035.88;;;12.21;100.00
16481;BME280;44634;54.110;12.138;2023-04-06T09:11:44;102037.44;;;12.24;96.38
16481;BME280;44634;54.110;12.138;2023-04-06T09:14:12;102036.81;;;13.11;91.50
16481;BME280;44634;54.110;12.138;2023-04-06T09:16:40;102039.47;;;12.89;84.46
16481;BME280;44634;54.110;12.138;2023-04-06T09:19:10;102025.50;;;14.16;69.44
16481;BME280;44634;54.110;12.138;2023-04-06T09:21:38;102027.63;;;13.81;69.88
16481;BME280;44634;54.110;12.138;2023-04-06T09:24:08;102028.88;;;13.97;61.32
16481;BME280;44634;54.110;12.138;2023-04-06T09:26:47;102015.25;;;15.05;57.16
16481;BME280;44634;54.110;12.138;2023-04-06T09:29:26;102016.97;;;14.54;57.14
16481;BME280;44634;54.110;12.138;2023-04-06T09:32:02;102017.75;;;15.06;58.49
16481;BME280;44634;54.110;12.138;2023-04-06T09:34:30;102011.34;;;15.28;47.05
16481;BME280;44634;54.110;12.138;2023-04-06T09:36:58;102020.16;;;15.09;42.73
16481;BME280;44634;54.110;12.138;2023-04-06T09:39:26;102017.03;;;16.31;38.87
16481;BME280;44634;54.110;12.138;2023-04-06T09:41:55;102019.69;;;15.54;40.08
16481;BME280;44634;54.110;12.138;2023-04-06T09:44:23;102017.63;;;16.06;38.25
16481;BME280;44634;54.110;12.138;2023-04-06T09:46:53;102007.53;;;17.48;37.62
16481;BME280;44634;54.110;12.138;2023-04-06T09:49:27;102018.56;;;16.34;36.44
16481;BME280;44634;54.110;12.138;2023-04-06T09:51:59;102012.22;;;15.38;38.69
16481;BME280;44634;54.110;12.138;2023-04-06T09:54:29;102024.78;;;15.76;38.81
16481;BME280;44634;54.110;12.138;2023-04-06T09:57:05;102012.16;;;15.88;38.15
16481;BME280;44634;54.110;12.138;2023-04-06T09:59:43;102017.19;;;16.20;36.89
16481;BME280;44634;54.110;12.138;2023-04-06T10:02:18;102003.66;;;16.31;36.33
16481;BME280;44634;54.110;12.138;2023-04-06T10:04:53;102007.59;;;15.40;35.96
16481;BME280;44634;54.110;12.138;2023-04-06T10:07:23;102003.84;;;16.20;35.29
16481;BME280;44634;54.110;12.138;2023-04-06T10:09:53;102001.53;;;16.45;35.03
16481;BME280;44634;54.110;12.138;2023-04-06T10:12:23;101996.47;;;18.66;30.44
16481;BME280;44634;54.110;12.138;2023-04-06T10:14:52;102007.00;;;17.63;31.73
16481;BME280;44634;54.110;12.138;2023-04-06T10:17:20;102006.78;;;16.83;33.64
16481;BME280;44634;54.110;12.138;2023-04-06T10:19:54;102007.66;;;16.08;34.18
16481;BME280;44634;54.110;12.138;2023-04-06T10:22:27;102000.44;;;17.57;33.21
16481;BME280;44634;54.110;12.138;2023-04-06T10:24:56;102012.66;;;15.34;36.24
16481;BME280;44634;54.110;12.138;2023-04-06T10:27:29;102003.59;;;17.88;30.55
16481;BME280;44634;54.110;12.138;2023-04-06T10:30:02;102009.00;;;16.41;33.40
16481;BME280;44634;54.110;12.138;2023-04-06T10:32:34;102023.41;;;17.05;30.06
16481;BME280;44634;54.110;12.138;2023-04-06T10:35:11;101996.84;;;18.71;29.49
16481;BME280;44634;54.110;12.138;2023-04-06T10:37:47;102004.78;;;17.58;30.37
16481;BME280;44634;54.110;12.138;2023-04-06T10:40:19;101999.41;;;16.68;32.03
16481;BME280;44634;54.110;12.138;2023-04-06T10:42:48;101997.91;;;18.35;30.51
16481;BME280;44634;54.110;12.138;2023-04-06T10:45:21;101992.63;;;17.01;31.03
16481;BME280;44634;54.110;12.138;2023-04-06T10:47:49;102009.16;;;16.30;29.83
16481;BME280;44634;54.110;12.138;2023-04-06T10:50:19;102004.09;;;16.36;30.41
16481;BME280;44634;54.110;12.138;2023-04-06T10:52:58;102004.66;;;16.87;29.58
16481;BME280;44634;54.110;12.138;2023-04-06T10:55:27;102002.03;;;17.50;29.07
16481;BME280;44634;54.110;12.138;2023-04-06T10:57:56;101992.50;;;15.89;30.62
16481;BME280;44634;54.110;12.138;2023-04-06T11:00:24;101990.19;;;18.06;27.89
16481;BME280;44634;54.110;12.138;2023-04-06T11:03:08;101998.59;;;17.58;28.36
16481;BME280;44634;54.110;12.138;2023-04-06T11:05:36;101979.31;;;17.81;28.47
16481;BME280;44634;54.110;12.138;2023-04-06T11:08:05;101983.38;;;18.11;27.60
16481;BME280;44634;54.110;12.138;2023-04-06T11:10:33;101994.59;;;16.05;27.68
16481;BME280;44634;54.110;12.138;2023-04-06T11:13:02;101987.38;;;17.36;27.43
16481;BME280;44634;54.110;12.138;2023-04-06T11:15:34;101989.94;;;17.28;28.70
16481;BME280;44634;54.110;12.138;2023-04-06T11:18:05;101979.69;;;17.69;27.08
16481;BME280;44634;54.110;12.138;2023-04-06T11:20:33;101998.25;;;16.70;27.06
16481;BME280;44634;54.110;12.138;2023-04-06T11:23:01;101986.28;;;17.02;27.66
16481;BME280;44634;54.110;12.138;2023-04-06T11:25:30;101983.28;;;16.40;27.54
16481;BME280;44634;54.110;12.138;2023-04-06T11:27:59;101972.94;;;18.26;26.34
16481;BME280;44634;54.110;12.138;2023-04-06T11:30:28;101972.22;;;18.50;26.51
16481;BME280;44634;54.110;12.138;2023-04-06T11:33:01;101991.19;;;15.45;29.61
16481;BME280;44634;54.110;12.138;2023-04-06T11:35:31;101972.59;;;17.32;27.52
16481;BME280;44634;54.110;12.138;2023-04-06T11:38:02;101967.13;;;17.87;27.67
16481;BME280;44634;54.110;12.138;2023-04-06T11:40:30;101981.25;;;16.99;27.42
16481;BME280;44634;54.110;12.138;2023-04-06T11:42:59;101969.94;;;17.50;27.82
16481;BME280;44634;54.110;12.138;2023-04-06T11:45:39;101963.34;;;18.16;26.83
16481;BME280;44634;54.110;12.138;2023-04-06T11:48:18;101950.25;;;18.12;27.14
16481;BME280;44634;54.110;12.138;2023-04-06T11:50:47;101965.88;;;17.46;28.01
16481;BME280;44634;54.110;12.138;2023-04-06T11:53:15;101972.03;;;18.18;27.04
16481;BME280;44634;54.110;12.138;2023-04-06T11:55:43;101958.91;;;18.06;26.59
16481;BME280;44634;54.110;12.138;2023-04-06T11:58:13;101967.19;;;17.24;26.96
16481;BME280;44634;54.110;12.138;2023-04-06T12:00:43;101972.53;;;17.42;27.11
16481;BME280;44634;54.110;12.138;2023-04-06T12:03:13;101967.28;;;16.40;28.62
16481;BME280;44634;54.110;12.138;2023-04-06T12:05:41;101970.28;;;18.26;26.35
16481;BME280;44634;54.110;12.138;2023-04-06T12:08:09;101947.44;;;18.40;25.70
16481;BME280;44634;54.110;12.138;2023-04-06T12:10:37;101935.25;;;20.67;24.77
16481;BME280;44634;54.110;12.138;2023-04-06T12:13:05;101944.19;;;18.96;25.19
16481;BME280;44634;54.110;12.138;2023-04-06T12:15:33;101929.34;;;20.16;24.64
16481;BME280;44634;54.110;12.138;2023-04-06T12:18:02;101937.09;;;19.62;24.18
16481;BME280;44634;54.110;12.138;2023-04-06T12:20:31;101935.47;;;19.02;25.74
16481;BME280;44634;54.110;12.138;2023-04-06T12:22:59;101938.38;;;19.17;25.73
16481;BME280;44634;54.110;12.138;2023-04-06T12:25:27;101954.81;;;17.94;26.87
16481;BME280;44634;54.110;12.138;2023-04-06T12:27:56;101939.78;;;18.53;26.50
16481;BME280;44634;54.110;12.138;2023-04-06T12:30:24;101947.16;;;17.99;26.40
16481;BME280;44634;54.110;12.138;2023-04-06T12:32:52;101943.41;;;18.70;25.51
16481;BME280;44634;54.110;12.138;2023-04-06T12:35:21;101949.31;;;18.22;26.31
16481;BME280;44634;54.110;12.138;2023-04-06T12:37:49;101951.22;;;17.32;26.13
16481;BME280;44634;54.110;12.138;2023-04-06T12:40:17;101939.78;;;17.75;26.18
16481;BME280;44634;54.110;12.138;2023-04-06T12:42:45;101932.47;;;18.03;26.43
16481;BME280;44634;54.110;12.138;2023-04-06T12:45:13;101944.81;;;17.78;25.69
16481;BME280;44634;54.110;12.138;2023-04-06T12:47:41;101941.19;;;17.16;25.12
16481;BME280;44634;54.110;12.138;2023-04-06T12:50:10;101940.78;;;17.39;25.03